Map

Track Data

SID SEASON NUMBER BASIN SUBBASIN NAME ISO_TIME NATURE LAT LON WMO_WIND WMO_PRES WMO_AGENCY TRACK_TYPE DIST2LAND LANDFALL IFLAG USA_AGENCY USA_ATCF_ID USA_LAT USA_LON USA_RECORD USA_STATUS USA_WIND USA_PRES USA_SSHS USA_R34_NE USA_R34_SE USA_R34_SW USA_R34_NW USA_R50_NE USA_R50_SE USA_R50_SW USA_R50_NW USA_R64_NE USA_R64_SE USA_R64_SW USA_R64_NW USA_POCI USA_ROCI USA_RMW USA_EYE TOKYO_LAT TOKYO_LON TOKYO_GRADE TOKYO_WIND TOKYO_PRES TOKYO_R50_DIR TOKYO_R50_LONG TOKYO_R50_SHORT TOKYO_R30_DIR TOKYO_R30_LONG TOKYO_R30_SHORT TOKYO_LAND CMA_LAT CMA_LON CMA_CAT CMA_WIND CMA_PRES HKO_LAT HKO_LON HKO_CAT HKO_WIND HKO_PRES NEWDELHI_LAT NEWDELHI_LON NEWDELHI_GRADE NEWDELHI_WIND NEWDELHI_PRES NEWDELHI_CI NEWDELHI_DP NEWDELHI_POCI REUNION_LAT REUNION_LON REUNION_TYPE REUNION_WIND REUNION_PRES REUNION_TNUM REUNION_CI REUNION_RMW REUNION_R34_NE REUNION_R34_SE REUNION_R34_SW REUNION_R34_NW REUNION_R50_NE REUNION_R50_SE REUNION_R50_SW REUNION_R50_NW REUNION_R64_NE REUNION_R64_SE REUNION_R64_SW REUNION_R64_NW BOM_LAT BOM_LON BOM_TYPE BOM_WIND BOM_PRES BOM_TNUM BOM_CI BOM_RMW BOM_R34_NE BOM_R34_SE BOM_R34_SW BOM_R34_NW BOM_R50_NE BOM_R50_SE BOM_R50_SW BOM_R50_NW BOM_R64_NE BOM_R64_SE BOM_R64_SW BOM_R64_NW BOM_ROCI BOM_POCI BOM_EYE BOM_POS_METHOD BOM_PRES_METHOD NADI_LAT NADI_LON NADI_CAT NADI_WIND NADI_PRES WELLINGTON_LAT WELLINGTON_LON WELLINGTON_WIND WELLINGTON_PRES DS824_LAT DS824_LON DS824_STAGE DS824_WIND DS824_PRES TD9636_LAT TD9636_LON TD9636_STAGE TD9636_WIND TD9636_PRES TD9635_LAT TD9635_LON TD9635_WIND TD9635_PRES TD9635_ROCI NEUMANN_LAT NEUMANN_LON NEUMANN_CLASS NEUMANN_WIND NEUMANN_PRES MLC_LAT MLC_LON MLC_CLASS MLC_WIND MLC_PRES USA_GUST BOM_GUST BOM_GUST_PER REUNION_GUST REUNION_GUST_PER USA_SEAHGT USA_SEARAD_NE USA_SEARAD_SE USA_SEARAD_SW USA_SEARAD_NW STORM_SPEED STORM_DIR
1993196N11241 1993 41 EP MM DORA 1993-07-14 12:00:00 TS 11.0000 -118.900 30 1010 hurdat_epa main 1632 1629 O_____________ hurdat_epa EP051993 11.0000 -118.900 TD 30 1010 -1 12 299
1993196N11241 1993 41 EP MM DORA 1993-07-14 15:00:00 TS 11.2927 -119.440 main 1636 1636 P_____________ EP051993 11.2927 -119.440 TD 32 1008 -1 12 299
1993196N11241 1993 41 EP MM DORA 1993-07-14 18:00:00 TS 11.6000 -120.000 35 1006 hurdat_epa main 1649 1647 O_____________ hurdat_epa EP051993 11.6000 -120.000 TS 35 1006 0 13 299
1993196N11241 1993 41 EP MM DORA 1993-07-14 21:00:00 TS 11.9224 -120.592 main 1665 1664 P_____________ EP051993 11.9224 -120.592 TS 37 1005 0 13 297
1993196N11241 1993 41 EP MM DORA 1993-07-15 00:00:00 TS 12.2000 -121.200 40 1004 hurdat_epa main 1684 1683 O_____________ hurdat_epa EP051993 12.2000 -121.200 TS 40 1004 0 13 291
1993196N11241 1993 41 EP MM DORA 1993-07-15 03:00:00 TS 12.3874 -121.808 main 1712 1712 P_____________ EP051993 12.3874 -121.808 TS 45 1002 0 12 284
1993196N11241 1993 41 EP MM DORA 1993-07-15 06:00:00 TS 12.5000 -122.400 50 1000 hurdat_epa main 1742 1742 O_____________ hurdat_epa EP051993 12.5000 -122.400 TS 50 1000 0 11 279
1993196N11241 1993 41 EP MM DORA 1993-07-15 09:00:00 TS 12.5573 -122.958 main 1773 1773 P_____________ EP051993 12.5573 -122.958 TS 52 997 0 11 275
1993196N11241 1993 41 EP MM DORA 1993-07-15 12:00:00 TS 12.6000 -123.500 55 995 hurdat_epa main 1807 1807 O_____________ hurdat_epa EP051993 12.6000 -123.500 TS 55 995 0 11 278
1993196N11241 1993 41 EP MM DORA 1993-07-15 15:00:00 TS 12.7000 -124.065 main 1841 1841 P_____________ EP051993 12.7000 -124.065 TS 62 990 0 11 281
1993196N11241 1993 41 EP MM DORA 1993-07-15 18:00:00 TS 12.8000 -124.600 70 985 hurdat_epa main 1869 1869 O_____________ hurdat_epa EP051993 12.8000 -124.600 HU 70 985 1 10 279
1993196N11241 1993 41 EP MM DORA 1993-07-15 21:00:00 TS 12.8498 -125.058 main 1906 1898 P_____________ EP051993 12.8498 -125.058 HU 77 980 1 9 277
1993196N11241 1993 41 EP MM DORA 1993-07-16 00:00:00 TS 12.9000 -125.500 85 975 hurdat_epa main 1928 1928 O_____________ hurdat_epa EP051993 12.9000 -125.500 HU 85 975 2 9 278
1993196N11241 1993 41 EP MM DORA 1993-07-16 03:00:00 TS 12.9850 -126.008 main 1959 1959 P_____________ EP051993 12.9850 -126.008 HU 92 967 2 10 282
1993196N11241 1993 41 EP MM DORA 1993-07-16 06:00:00 TS 13.1000 -126.500 100 960 hurdat_epa main 1990 1990 O_____________ hurdat_epa EP051993 13.1000 -126.500 HU 100 960 3 9 286
1993196N11241 1993 41 EP MM DORA 1993-07-16 09:00:00 TS 13.2349 -126.923 main 2014 2014 P_____________ EP051993 13.2349 -126.923 HU 105 957 3 8 291
1993196N11241 1993 41 EP MM DORA 1993-07-16 12:00:00 TS 13.4000 -127.300 110 955 hurdat_epa main 2032 2032 O_____________ hurdat_epa EP051993 13.4000 -127.300 HU 110 955 3 8 296
1993196N11241 1993 41 EP MM DORA 1993-07-16 15:00:00 TS 13.5849 -127.650 main 2050 2049 P_____________ EP051993 13.5849 -127.650 HU 112 952 3 8 300
1993196N11241 1993 41 EP MM DORA 1993-07-16 18:00:00 TS 13.8000 -128.000 115 950 hurdat_epa main 2056 2054 O_____________ hurdat_epa EP051993 13.8000 -128.000 HU 115 950 4 9 302
1993196N11241 1993 41 EP MM DORA 1993-07-16 21:00:00 TS 14.0350 -128.393 main 2066 2057 P_____________ EP051993 14.0350 -128.393 HU 115 948 4 9 303
1993196N11241 1993 41 EP MM DORA 1993-07-17 00:00:00 TS 14.3000 -128.800 115 947 hurdat_epa main 2069 2066 O_____________ hurdat_epa EP051993 14.3000 -128.800 HU 115 947 4 10 305
1993196N11241 1993 41 EP MM DORA 1993-07-17 03:00:00 TS 14.6000 -129.215 main 2073 2070 P_____________ EP051993 14.6000 -129.215 HU 115 946 4 10 308
1993196N11241 1993 41 EP MM DORA 1993-07-17 06:00:00 TS 14.9000 -129.600 115 945 hurdat_epa main 2078 2077 O_____________ hurdat_epa EP051993 14.9000 -129.600 HU 115 945 4 9 310
1993196N11241 1993 41 EP MM DORA 1993-07-17 09:00:00 TS 15.1573 -129.900 main 2077 2076 P_____________ EP051993 15.1573 -129.900 HU 115 947 4 8 311
1993196N11241 1993 41 EP MM DORA 1993-07-17 12:00:00 TS 15.4000 -130.200 115 950 hurdat_epa main 2084 2084 O_____________ hurdat_epa EP051993 15.4000 -130.200 HU 115 950 4 8 307
1993196N11241 1993 41 EP MM DORA 1993-07-17 15:00:00 TS 15.6499 -130.570 main 2100 2092 P_____________ EP051993 15.6499 -130.570 HU 110 952 3 9 303
1993196N11241 1993 41 EP MM DORA 1993-07-17 18:00:00 TS 15.9000 -131.000 105 955 hurdat_epa main 2109 2109 O_____________ hurdat_epa EP051993 15.9000 -131.000 HU 105 955 3 10 299
1993196N11241 1993 41 EP MM DORA 1993-07-17 21:00:00 TS 16.1500 -131.493 main 2128 2128 P_____________ EP051993 16.1500 -131.493 HU 97 961 3 11 298
1993196N11241 1993 41 EP MM DORA 1993-07-18 00:00:00 TS 16.4000 -132.000 90 968 hurdat_epa main 2155 2155 O_____________ hurdat_epa EP051993 16.4000 -132.000 HU 90 968 2 11 299
1993196N11241 1993 41 EP MM DORA 1993-07-18 03:00:00 TS 16.6649 -132.458 main 2176 2176 P_____________ EP051993 16.6649 -132.458 HU 85 974 2 10 300
1993196N11241 1993 41 EP MM DORA 1993-07-18 06:00:00 TS 16.9000 -132.900 80 980 hurdat_epa main 2197 2197 O_____________ hurdat_epa EP051993 16.9000 -132.900 HU 80 980 1 10 295
1993196N11241 1993 41 EP MM DORA 1993-07-18 09:00:00 TS 17.0724 -133.358 main 2227 2227 P_____________ EP051993 17.0724 -133.358 HU 75 983 1 9 289
1993196N11241 1993 41 EP MM DORA 1993-07-18 12:00:00 TS 17.2000 -133.800 70 987 hurdat_epa main 2230 2186 O_____________ hurdat_epa EP051993 17.2000 -133.800 HU 70 987 1 8 287
1993196N11241 1993 41 EP MM DORA 1993-07-18 15:00:00 TS 17.3148 -134.193 main 2186 2142 P_____________ EP051993 17.3148 -134.193 HU 62 991 0 8 285
1993196N11241 1993 41 EP MM DORA 1993-07-18 18:00:00 TS 17.4000 -134.600 55 995 hurdat_epa main 2142 2098 O_____________ hurdat_epa EP051993 17.4000 -134.600 TS 55 995 0 9 280
1993196N11241 1993 41 EP MM DORA 1993-07-18 21:00:00 TS 17.4649 -135.070 main 2088 2036 P_____________ EP051993 17.4649 -135.070 TS 50 997 0 10 276
1993196N11241 1993 41 EP MM DORA 1993-07-19 00:00:00 TS 17.5000 -135.600 45 1000 hurdat_epa main 2036 1983 O_____________ hurdat_epa EP051993 17.5000 -135.600 TS 45 1000 0 11 272
1993196N11241 1993 41 EP MM DORA 1993-07-19 03:00:00 TS 17.5074 -136.178 main 1973 1910 P_____________ EP051993 17.5074 -136.178 TS 40 1002 0 11 270
1993196N11241 1993 41 EP MM DORA 1993-07-19 06:00:00 TS 17.5000 -136.800 35 1005 hurdat_epa main 1910 1847 O_____________ hurdat_epa EP051993 17.5000 -136.800 TS 35 1005 0 12 270
1993196N11241 1993 41 EP MM DORA 1993-07-19 09:00:00 TS 17.4999 -137.443 main 1847 1774 P_____________ EP051993 17.4999 -137.443 TS 32 1007 -1 12 270
1993196N11241 1993 41 EP MM DORA 1993-07-19 12:00:00 TS 17.5000 -138.100 30 1010 hurdat_epa main 1774 1711 O_____________ hurdat_epa EP051993 17.5000 -138.100 TD 30 1010 -1 13 270
1993196N11241 1993 41 EP MM DORA 1993-07-19 15:00:00 TS 17.5074 -138.757 main 1701 1638 P_____________ EP051993 17.5074 -138.757 TD 30 1010 -1 12 270
1993196N11241 1993 41 EP MM DORA 1993-07-19 18:00:00 TS 17.5000 -139.400 30 1010 hurdat_epa main 1638 1576 O_____________ hurdat_epa EP051993 17.5000 -139.400 TD 30 1010 -1 12 267
1993196N11241 1993 41 EP CP DORA 1993-07-19 21:00:00 TS 17.4498 -140.008 main 1578 1515 P_____________ EP051993 17.4497 -140.008 TD 27 1010 -1 12 265
1993196N11241 1993 41 EP CP DORA 1993-07-20 00:00:00 TS 17.4000 -140.600 25 1010 hurdat_epa main 1515 1463 O_____________ hurdat_epa EP051993 17.4000 -140.600 TD 25 1010 -1 11 267
1993196N11241 1993 41 EP CP DORA 1993-07-20 03:00:00 TS 17.3927 -141.158 main 1453 1390 P_____________ EP051993 17.3919 -141.162 TD 25 1010 -1 11 270
1993196N11241 1993 41 EP CP DORA 1993-07-20 06:00:00 TS 17.4000 -141.800 25 1010 hurdat_epa main 1390 1307 O_____________ hurdat_epa EP051993 17.4000 -141.800 TD 25 1010 -1 14 271
1993196N11241 1993 41 EP CP DORA 1993-07-20 09:00:00 TS 17.4081 -142.665 main 1297 1214 P_____________ EP051993 17.4081 -142.665 TD 25 1010 -1 16 270
1993196N11241 1993 41 EP CP DORA 1993-07-20 12:00:00 TS 17.4000 -143.500 25 1010 hurdat_epa main 1214 1163 O_____________ hurdat_epa EP051993 17.4000 -143.500 TD 25 1010 -1 13 268
1993196N11241 1993 41 EP CP DORA 1993-07-20 15:00:00 TS 17.3576 -144.038 main 1163 1114 P_____________ EP051993 17.3566 -144.015 TD 25 1010 -1 10 264
1993196N11241 1993 41 EP CP DORA 1993-07-20 18:00:00 TS 17.3000 -144.500 25 1010 hurdat_epa main 1114 1052 O_____________ hurdat_epa EP051993 17.3000 -144.500 TD 25 1010 -1 11 264
1993196N11241 1993 41 EP CP DORA 1993-07-20 21:00:00 NR 17.2487 -145.183 main 1045 963 P_____________ EP051993 17.2487 -145.183 TD 22 -1 14 266
1993196N11241 1993 41 EP CP DORA 1993-07-21 00:00:00 NR 17.2000 -146.000 20 cphc main 963 O_____________ jtwc_ep EP051993 17.2000 -146.000 20 16 266

About IBTrACS Database

This database is a web-friendly format of International Best Track Archive for Climate Stewardship (IBTrACS), a global best track data archive curated by NOAA dating back to 1842.

Updated: 2021-12-03